createdAt,value
2019-05-10T00:00:16.878Z,971.94
2019-05-10T00:01:16.833Z,971.90
2019-05-10T00:02:16.792Z,971.94
2019-05-10T00:03:16.764Z,971.91
2019-05-10T00:04:16.731Z,971.94
2019-05-10T00:05:16.690Z,971.97
2019-05-10T00:06:16.644Z,971.91
2019-05-10T00:07:16.666Z,971.94
2019-05-10T00:08:16.582Z,971.93
2019-05-10T00:09:16.539Z,971.92
2019-05-10T00:10:16.496Z,971.97
2019-05-10T00:11:16.471Z,971.93
2019-05-10T00:12:16.448Z,971.93
2019-05-10T00:13:16.401Z,971.93
2019-05-10T00:14:16.376Z,971.92
2019-05-10T00:15:16.376Z,971.98
2019-05-10T00:16:16.274Z,971.96
2019-05-10T00:17:16.258Z,971.95
2019-05-10T00:18:16.212Z,971.93
2019-05-10T00:19:16.187Z,971.97
2019-05-10T00:20:16.166Z,971.93
2019-05-10T00:21:16.093Z,971.95
2019-05-10T00:22:16.092Z,971.99
2019-05-10T00:23:16.032Z,971.95
2019-05-10T00:24:15.991Z,971.96
2019-05-10T00:25:15.951Z,972.00
2019-05-10T00:26:15.926Z,971.99
2019-05-10T00:27:15.888Z,971.98
2019-05-10T00:28:15.857Z,971.96
2019-05-10T00:29:15.836Z,971.96
2019-05-10T00:30:16.406Z,971.97
2019-05-10T00:31:15.738Z,971.99
2019-05-10T00:32:15.772Z,971.96
2019-05-10T00:33:15.660Z,971.97
2019-05-10T00:34:15.658Z,971.95
2019-05-10T00:35:15.610Z,971.97
2019-05-10T00:36:15.563Z,971.96
2019-05-10T00:37:15.543Z,971.95
2019-05-10T00:38:15.483Z,971.98
2019-05-10T00:39:19.231Z,972.00
2019-05-10T00:40:15.406Z,972.00
2019-05-10T00:41:15.378Z,972.02
2019-05-10T00:42:15.345Z,972.01
2019-05-10T00:43:15.302Z,972.04
2019-05-10T00:44:15.262Z,971.98
2019-05-10T00:45:15.213Z,972.02
2019-05-10T00:46:15.222Z,972.02
2019-05-10T00:47:15.167Z,971.99
2019-05-10T00:48:15.115Z,972.02
2019-05-10T00:49:15.082Z,972.00
2019-05-10T00:50:20.632Z,972.00
2019-05-10T00:51:17.942Z,972.00
2019-05-10T00:52:18.471Z,971.98
2019-05-10T00:54:08.627Z,972.02
2019-05-10T00:55:18.456Z,972.08
2019-05-10T00:57:02.192Z,972.08
2019-05-10T00:58:02.006Z,972.03
2019-05-10T00:59:56.643Z,972.05
2019-05-10T01:00:56.499Z,972.02
2019-05-10T01:01:56.492Z,972.06
2019-05-10T01:02:56.450Z,972.07
2019-05-10T01:03:56.394Z,972.08
2019-05-10T01:04:56.362Z,972.10
2019-05-10T01:05:56.372Z,972.09
2019-05-10T01:06:56.659Z,972.09
2019-05-10T01:07:56.239Z,972.16
2019-05-10T01:08:56.206Z,972.12
2019-05-10T01:09:56.150Z,972.17
2019-05-10T01:10:56.105Z,972.11
2019-05-10T01:11:56.088Z,972.11
2019-05-10T01:12:56.054Z,972.14
2019-05-10T01:13:56.011Z,972.16
2019-05-10T01:14:55.986Z,972.16
2019-05-10T01:15:55.935Z,972.19
2019-05-10T01:16:55.893Z,972.16
2019-05-10T01:17:55.867Z,972.18
2019-05-10T01:18:55.820Z,972.20
2019-05-10T01:19:55.817Z,972.21
2019-05-10T01:20:55.747Z,972.21
2019-05-10T01:21:55.700Z,972.25
2019-05-10T01:22:55.664Z,972.27
2019-05-10T01:23:55.629Z,972.24
2019-05-10T01:24:55.602Z,972.26
2019-05-10T01:25:55.580Z,972.26
2019-05-10T01:26:55.533Z,972.29
2019-05-10T01:27:55.495Z,972.31
2019-05-10T01:28:55.465Z,972.34
2019-05-10T01:29:55.410Z,972.29
2019-05-10T01:30:55.407Z,972.30
2019-05-10T01:31:55.354Z,972.32
2019-05-10T01:32:55.297Z,972.35
2019-05-10T01:33:55.280Z,972.33
2019-05-10T01:34:55.219Z,972.34
2019-05-10T01:35:55.179Z,972.35
2019-05-10T01:36:55.142Z,972.38
2019-05-10T01:37:55.099Z,972.42
2019-05-10T01:38:55.073Z,972.39
2019-05-10T01:39:55.044Z,972.39
2019-05-10T01:40:54.995Z,972.38
2019-05-10T01:41:54.994Z,972.40
2019-05-10T01:42:54.929Z,972.38
2019-05-10T01:43:54.906Z,972.37
2019-05-10T01:44:54.837Z,972.39
2019-05-10T01:45:54.799Z,972.38
2019-05-10T01:46:54.780Z,972.42
2019-05-10T01:47:54.739Z,972.41
2019-05-10T01:48:54.709Z,972.44
2019-05-10T01:49:54.676Z,972.38
2019-05-10T01:50:54.637Z,972.40
2019-05-10T01:51:54.611Z,972.38
2019-05-10T01:52:54.552Z,972.38
2019-05-10T01:53:54.517Z,972.35
2019-05-10T01:54:54.497Z,972.38
2019-05-10T01:55:54.463Z,972.40
2019-05-10T01:56:54.397Z,972.41
2019-05-10T01:57:54.382Z,972.42
2019-05-10T01:58:54.347Z,972.42
2019-05-10T01:59:54.301Z,972.45
2019-05-10T02:00:54.249Z,972.45
2019-05-10T02:01:54.217Z,972.48
2019-05-10T02:02:54.201Z,972.53
2019-05-10T02:03:54.126Z,972.52
2019-05-10T02:04:54.099Z,972.51
2019-05-10T02:05:54.063Z,972.50
2019-05-10T02:06:54.049Z,972.51
2019-05-10T02:07:53.991Z,972.52
2019-05-10T02:08:53.941Z,972.52
2019-05-10T02:09:53.929Z,972.56
2019-05-10T02:10:53.890Z,972.59
2019-05-10T02:11:53.861Z,972.60
2019-05-10T02:12:53.800Z,972.61
2019-05-10T02:13:53.768Z,972.60
2019-05-10T02:14:53.792Z,972.65
2019-05-10T02:15:53.700Z,972.68
2019-05-10T02:16:53.667Z,972.67
2019-05-10T02:17:53.614Z,972.70
2019-05-10T02:18:53.584Z,972.74
2019-05-10T02:19:53.534Z,972.76
2019-05-10T02:20:53.511Z,972.77
2019-05-10T02:21:53.465Z,972.76
2019-05-10T02:22:53.436Z,972.80
2019-05-10T02:23:53.385Z,972.78
2019-05-10T02:24:53.356Z,972.79
2019-05-10T02:26:08.422Z,972.81
2019-05-10T02:26:53.282Z,972.80
2019-05-10T02:27:53.243Z,972.79
2019-05-10T02:28:53.212Z,972.82
2019-05-10T02:29:53.147Z,972.82
2019-05-10T02:30:53.131Z,972.85
2019-05-10T02:31:53.103Z,972.86
2019-05-10T02:32:53.052Z,972.91
2019-05-10T02:33:53.047Z,972.91
2019-05-10T02:34:52.972Z,972.95
2019-05-10T02:35:52.929Z,972.98
2019-05-10T02:36:52.879Z,973.02
2019-05-10T02:37:52.849Z,973.01
2019-05-10T02:38:52.815Z,972.99
2019-05-10T02:39:52.770Z,972.96
2019-05-10T02:40:55.821Z,972.99
2019-05-10T02:41:52.693Z,973.01
2019-05-10T02:42:52.664Z,973.01
2019-05-10T02:43:52.647Z,973.01
2019-05-10T02:44:52.586Z,972.98
2019-05-10T02:45:52.549Z,973.00
2019-05-10T02:46:52.504Z,973.00
2019-05-10T02:47:52.472Z,973.04
2019-05-10T02:49:30.008Z,973.00
2019-05-10T02:49:52.406Z,973.01
2019-05-10T02:51:47.067Z,973.05
2019-05-10T02:52:46.948Z,973.05
2019-05-10T02:53:46.903Z,973.06
2019-05-10T02:54:46.848Z,973.08
2019-05-10T02:55:46.803Z,973.08
2019-05-10T02:56:46.759Z,973.10
2019-05-10T02:57:46.715Z,973.09
2019-05-10T02:58:46.704Z,973.12
2019-05-10T02:59:46.678Z,973.14
2019-05-10T03:00:46.603Z,973.12
2019-05-10T03:01:46.593Z,973.15
2019-05-10T03:02:46.639Z,973.14
2019-05-10T03:03:46.526Z,973.11
2019-05-10T03:04:46.440Z,973.17
2019-05-10T03:05:48.573Z,973.21
2019-05-10T03:06:46.355Z,973.25
2019-05-10T03:07:46.312Z,973.29
2019-05-10T03:08:46.273Z,973.22
2019-05-10T03:09:46.238Z,973.27
2019-05-10T03:10:46.206Z,973.27
2019-05-10T03:11:46.183Z,973.28
2019-05-10T03:12:46.135Z,973.28
2019-05-10T03:13:46.079Z,973.33
2019-05-10T03:14:46.067Z,973.36
2019-05-10T03:15:46.007Z,973.38
2019-05-10T03:16:45.988Z,973.42
2019-05-10T03:17:45.975Z,973.38
2019-05-10T03:18:45.921Z,973.40
2019-05-10T03:19:45.911Z,973.44
2019-05-10T03:20:45.913Z,973.45
2019-05-10T03:21:45.819Z,973.44
2019-05-10T03:22:45.769Z,973.48
2019-05-10T03:23:45.734Z,973.49
2019-05-10T03:24:45.688Z,973.46
2019-05-10T03:25:45.639Z,973.53
2019-05-10T03:26:50.687Z,973.48
2019-05-10T03:27:45.623Z,973.46
2019-05-10T03:28:45.545Z,973.48
2019-05-10T03:29:45.492Z,973.46
2019-05-10T03:30:45.550Z,973.48
2019-05-10T03:31:45.433Z,973.52
2019-05-10T03:32:45.403Z,973.49
2019-05-10T03:33:45.345Z,973.50
2019-05-10T03:34:45.318Z,973.50
2019-05-10T03:35:45.316Z,973.51
2019-05-10T03:36:45.244Z,973.50
2019-05-10T03:37:45.185Z,973.51
2019-05-10T03:38:45.152Z,973.55
2019-05-10T03:39:45.111Z,973.56
2019-05-10T03:40:45.088Z,973.60
2019-05-10T03:41:45.718Z,973.63
2019-05-10T03:42:45.004Z,973.63
2019-05-10T03:43:44.979Z,973.63
2019-05-10T03:44:44.927Z,973.63
2019-05-10T03:45:44.890Z,973.62
2019-05-10T03:46:44.965Z,973.66
2019-05-10T03:47:44.812Z,973.70
2019-05-10T03:48:44.788Z,973.71
2019-05-10T03:49:44.734Z,973.68
2019-05-10T03:50:44.703Z,973.67
2019-05-10T03:51:44.680Z,973.68
2019-05-10T03:52:44.613Z,973.70
2019-05-10T03:53:44.590Z,973.71
2019-05-10T03:54:44.599Z,973.72
2019-05-10T03:55:45.238Z,973.75
2019-05-10T03:56:44.477Z,973.76
2019-05-10T03:57:44.437Z,973.76
2019-05-10T03:58:44.426Z,973.76
2019-05-10T03:59:44.378Z,973.80
2019-05-10T04:00:44.352Z,973.80
2019-05-10T04:01:44.297Z,973.84
2019-05-10T04:02:44.384Z,973.86
2019-05-10T04:03:44.240Z,973.86
2019-05-10T04:04:44.182Z,973.86
2019-05-10T04:05:44.153Z,973.91
2019-05-10T04:06:44.111Z,973.93
2019-05-10T04:07:44.077Z,973.92
2019-05-10T04:08:44.031Z,973.94
2019-05-10T04:09:43.993Z,973.94
2019-05-10T04:10:43.947Z,973.94
2019-05-10T04:11:43.922Z,973.94
2019-05-10T04:12:43.918Z,974.00
2019-05-10T04:13:43.842Z,973.98
2019-05-10T04:14:43.821Z,973.97
2019-05-10T04:15:43.765Z,973.98
2019-05-10T04:16:43.720Z,974.00
2019-05-10T04:17:43.685Z,973.99
2019-05-10T04:18:43.658Z,974.00
2019-05-10T04:19:43.609Z,974.00
2019-05-10T04:20:43.579Z,974.01
2019-05-10T04:21:43.546Z,974.04
2019-05-10T04:22:43.523Z,974.06
2019-05-10T04:23:43.459Z,974.04
2019-05-10T04:24:43.432Z,974.08
2019-05-10T04:25:43.395Z,974.05
2019-05-10T04:26:43.344Z,974.10
2019-05-10T04:27:44.249Z,974.11
2019-05-10T04:28:43.264Z,974.12
2019-05-10T04:29:43.239Z,974.10
2019-05-10T04:30:43.199Z,974.10
2019-05-10T04:31:43.166Z,974.12
2019-05-10T04:32:43.123Z,974.11
2019-05-10T04:33:43.074Z,974.14
2019-05-10T04:34:43.040Z,974.16
2019-05-10T04:35:43.018Z,974.19
2019-05-10T04:36:42.982Z,974.18
2019-05-10T04:37:42.939Z,974.22
2019-05-10T04:38:42.907Z,974.24
2019-05-10T04:39:42.868Z,974.24
2019-05-10T04:40:42.847Z,974.23
2019-05-10T04:41:42.794Z,974.23
2019-05-10T04:42:42.754Z,974.24
2019-05-10T04:43:42.721Z,974.24
2019-05-10T04:44:42.737Z,974.22
2019-05-10T04:45:42.685Z,974.27
2019-05-10T04:46:42.658Z,974.30
2019-05-10T04:47:42.571Z,974.26
2019-05-10T04:48:42.546Z,974.26
2019-05-10T04:49:42.498Z,974.28
2019-05-10T04:50:42.489Z,974.26
2019-05-10T04:51:42.505Z,974.28
2019-05-10T04:52:42.424Z,974.27
2019-05-10T04:53:42.347Z,974.30
2019-05-10T04:54:42.391Z,974.26
2019-05-10T04:55:42.295Z,974.30
2019-05-10T04:56:42.246Z,974.32
2019-05-10T04:57:50.625Z,974.31
2019-05-10T04:58:42.172Z,974.32
2019-05-10T04:59:42.144Z,974.35
2019-05-10T05:00:42.107Z,974.34
2019-05-10T05:01:42.087Z,974.34
2019-05-10T05:02:42.025Z,974.33
2019-05-10T05:03:41.991Z,974.31
2019-05-10T05:04:41.949Z,974.33
2019-05-10T05:05:41.922Z,974.31
2019-05-10T05:06:41.877Z,974.34
2019-05-10T05:07:41.837Z,974.38
2019-05-10T05:08:41.800Z,974.36
2019-05-10T05:09:41.781Z,974.35
2019-05-10T05:10:41.728Z,974.35
2019-05-10T05:11:41.701Z,974.41
2019-05-10T05:12:41.671Z,974.45
2019-05-10T05:13:41.641Z,974.57
2019-05-10T05:14:41.617Z,974.60
2019-05-10T05:15:41.571Z,974.57
2019-05-10T05:16:41.542Z,974.58
2019-05-10T05:17:41.502Z,974.54
2019-05-10T05:18:41.456Z,974.56
2019-05-10T05:19:41.407Z,974.58
2019-05-10T05:20:41.376Z,974.60
2019-05-10T05:21:41.358Z,974.65
2019-05-10T05:22:41.350Z,974.67
2019-05-10T05:23:41.265Z,974.70
2019-05-10T05:24:41.261Z,974.70
2019-05-10T05:25:41.864Z,974.76
2019-05-10T05:26:41.189Z,974.79
2019-05-10T05:27:41.127Z,974.76
2019-05-10T05:28:41.105Z,974.81
2019-05-10T05:29:41.076Z,974.84
2019-05-10T05:30:41.042Z,974.87
2019-05-10T05:31:40.986Z,974.83
2019-05-10T05:32:44.631Z,974.84
2019-05-10T05:33:40.935Z,974.88
2019-05-10T05:34:40.876Z,974.88
2019-05-10T05:35:40.852Z,974.90
2019-05-10T05:36:40.800Z,974.97
2019-05-10T05:37:41.333Z,974.99
2019-05-10T05:38:47.265Z,974.96
2019-05-10T05:39:40.763Z,974.95
2019-05-10T05:40:40.672Z,975.03
2019-05-10T05:41:48.754Z,974.99
2019-05-10T05:42:40.618Z,975.05
2019-05-10T05:43:45.813Z,975.03
2019-05-10T05:44:40.539Z,975.05
2019-05-10T05:45:40.500Z,975.09
2019-05-10T05:46:40.498Z,975.02
2019-05-10T05:47:42.272Z,975.07
2019-05-10T05:48:40.856Z,975.06
2019-05-10T05:49:40.334Z,975.06
2019-05-10T05:50:40.332Z,975.10
2019-05-10T05:51:41.291Z,975.06
2019-05-10T05:52:40.281Z,975.06
2019-05-10T05:53:42.184Z,975.07
2019-05-10T05:54:40.198Z,975.07
2019-05-10T05:55:40.139Z,975.05
2019-05-10T05:56:44.563Z,975.04
2019-05-10T05:57:40.097Z,975.06
2019-05-10T05:58:44.603Z,975.05
2019-05-10T05:59:39.999Z,975.02
2019-05-10T06:00:44.809Z,975.04
2019-05-10T06:01:39.925Z,975.00
2019-05-10T06:02:44.744Z,975.00
2019-05-10T06:03:39.849Z,975.07
2019-05-10T06:04:40.968Z,975.10
2019-05-10T06:05:39.782Z,975.09
2019-05-10T06:06:39.749Z,975.13
2019-05-10T06:07:39.729Z,975.13
2019-05-10T06:08:39.685Z,975.12
2019-05-10T06:09:39.643Z,975.17
2019-05-10T06:10:39.613Z,975.17
2019-05-10T06:11:39.575Z,975.11
2019-05-10T06:12:39.589Z,975.12
2019-05-10T06:13:39.517Z,975.19
2019-05-10T06:14:43.080Z,975.17
2019-05-10T06:15:39.439Z,975.20
2019-05-10T06:16:39.457Z,975.24
2019-05-10T06:17:39.428Z,975.17
2019-05-10T06:18:41.532Z,975.22
2019-05-10T06:19:39.306Z,975.18
2019-05-10T06:20:44.587Z,975.21
2019-05-10T06:21:39.258Z,975.23
2019-05-10T06:22:43.803Z,975.22
2019-05-10T06:23:39.192Z,975.22
2019-05-10T06:24:39.138Z,975.21
2019-05-10T06:25:42.246Z,975.23
2019-05-10T06:26:39.064Z,975.25
2019-05-10T06:27:40.928Z,975.21
2019-05-10T06:29:38.978Z,975.25
2019-05-10T06:30:38.910Z,975.23
2019-05-10T06:31:38.913Z,975.22
2019-05-10T06:32:38.874Z,975.23
2019-05-10T06:33:44.446Z,975.23
2019-05-10T06:34:40.224Z,975.27
2019-05-10T06:35:38.747Z,975.22
2019-05-10T06:36:38.765Z,975.21
2019-05-10T06:37:38.703Z,975.31
2019-05-10T06:38:38.687Z,975.29
2019-05-10T06:39:38.626Z,975.31
2019-05-10T06:40:46.377Z,975.28
2019-05-10T06:41:38.560Z,975.32
2019-05-10T06:42:38.589Z,975.30
2019-05-10T06:43:38.466Z,975.32
2019-05-10T06:44:38.481Z,975.33
2019-05-10T06:45:38.440Z,975.31
2019-05-10T06:46:38.435Z,975.31
2019-05-10T06:47:41.914Z,975.33
2019-05-10T06:48:38.295Z,975.38
2019-05-10T06:49:41.044Z,975.31
2019-05-10T06:50:38.228Z,975.36
2019-05-10T06:51:42.930Z,975.37
2019-05-10T06:52:38.186Z,975.39
2019-05-10T06:53:42.283Z,975.38
2019-05-10T06:54:38.112Z,975.36
2019-05-10T06:55:38.075Z,975.36
2019-05-10T06:56:38.078Z,975.39
2019-05-10T06:57:38.016Z,975.40
2019-05-10T06:58:38.488Z,975.44
2019-05-10T06:59:37.947Z,975.40
2019-05-10T07:00:43.916Z,975.45
2019-05-10T07:01:44.495Z,975.45
2019-05-10T07:02:37.852Z,975.52
2019-05-10T07:03:37.822Z,975.44
2019-05-10T07:04:40.987Z,975.46
2019-05-10T07:05:37.828Z,975.44
2019-05-10T07:06:38.310Z,975.41
2019-05-10T07:07:45.563Z,975.43
2019-05-10T07:08:44.263Z,975.46
2019-05-10T07:10:01.374Z,975.42
2019-05-10T07:10:37.603Z,975.51
2019-05-10T07:11:38.288Z,975.43
2019-05-10T07:12:37.703Z,975.43
2019-05-10T07:13:40.368Z,975.40
2019-05-10T07:14:44.974Z,975.44
2019-05-10T07:15:42.167Z,975.37
2019-05-10T07:16:37.469Z,975.41
2019-05-10T07:17:43.649Z,975.45
2019-05-10T07:18:37.356Z,975.47
2019-05-10T07:19:42.003Z,975.49
2019-05-10T07:20:37.308Z,975.55
2019-05-10T07:21:38.952Z,975.56
2019-05-10T07:22:37.285Z,975.49
2019-05-10T07:23:39.000Z,975.57
2019-05-10T07:24:37.191Z,975.42
2019-05-10T07:25:37.622Z,975.59
2019-05-10T07:26:37.179Z,975.57
2019-05-10T07:27:38.657Z,975.55
2019-05-10T07:28:37.087Z,975.59
2019-05-10T07:29:43.680Z,975.61
2019-05-10T07:30:40.520Z,975.64
2019-05-10T07:31:36.993Z,975.59
2019-05-10T07:32:37.010Z,975.60
2019-05-10T07:33:38.932Z,975.53
2019-05-10T07:34:36.929Z,975.59
2019-05-10T07:35:38.629Z,975.60
2019-05-10T07:36:36.857Z,975.59
2019-05-10T07:37:36.809Z,975.63
2019-05-10T07:38:36.773Z,975.61
2019-05-10T07:39:36.751Z,975.56
2019-05-10T07:40:36.739Z,975.61
2019-05-10T07:41:36.699Z,975.60
2019-05-10T07:42:39.744Z,975.59
2019-05-10T07:43:36.640Z,975.60
2019-05-10T07:44:36.593Z,975.58
2019-05-10T07:45:36.573Z,975.63
2019-05-10T07:46:40.220Z,975.59
2019-05-10T07:47:36.509Z,975.67
2019-05-10T07:48:41.323Z,975.64
2019-05-10T07:49:36.461Z,975.68
2019-05-10T07:50:36.447Z,975.71
2019-05-10T07:51:36.406Z,975.71
2019-05-10T07:52:43.152Z,975.75
2019-05-10T07:53:36.347Z,975.71
2019-05-10T07:54:37.572Z,975.78
2019-05-10T07:55:36.295Z,975.80
2019-05-10T07:56:38.880Z,975.77
2019-05-10T07:57:36.198Z,975.83
2019-05-10T07:58:38.219Z,975.74
2019-05-10T07:59:49.647Z,975.83
2019-05-10T08:00:37.900Z,975.85
2019-05-10T08:01:36.067Z,975.79
2019-05-10T08:02:36.039Z,975.91
2019-05-10T08:03:44.365Z,975.81
2019-05-10T08:04:38.291Z,975.90
2019-05-10T08:05:35.945Z,975.85
2019-05-10T08:06:44.409Z,975.89
2019-05-10T08:07:35.875Z,975.94
2019-05-10T08:08:35.858Z,975.94
2019-05-10T08:09:37.042Z,975.86
2019-05-10T08:10:35.782Z,975.92
2019-05-10T08:11:35.752Z,975.87
2019-05-10T08:12:43.768Z,975.89
2019-05-10T08:13:35.697Z,975.93
2019-05-10T08:14:35.691Z,975.87
2019-05-10T08:15:35.647Z,975.89
2019-05-10T08:16:35.608Z,975.85
2019-05-10T08:17:40.266Z,975.89
2019-05-10T08:18:35.538Z,975.88
2019-05-10T08:19:37.696Z,975.93
2019-05-10T08:21:35.468Z,975.90
2019-05-10T08:22:41.577Z,975.88
2019-05-10T08:23:36.317Z,975.91
2019-05-10T08:24:35.597Z,975.91
2019-05-10T08:25:40.666Z,975.98
2019-05-10T08:26:35.335Z,975.94
2019-05-10T08:27:35.267Z,976.05
2019-05-10T08:28:37.916Z,975.99
2019-05-10T08:29:35.210Z,975.97
2019-05-10T08:30:35.514Z,975.97
2019-05-10T08:31:40.568Z,976.00
2019-05-10T08:32:35.240Z,975.94
2019-05-10T08:33:35.103Z,975.92
2019-05-10T08:34:39.223Z,975.95
2019-05-10T08:35:36.682Z,976.00
2019-05-10T08:36:37.218Z,975.99
2019-05-10T08:37:37.831Z,976.04
2019-05-10T08:38:39.743Z,976.08
2019-05-10T08:39:45.644Z,976.03
2019-05-10T08:40:37.861Z,976.03
2019-05-10T08:41:34.925Z,975.97
2019-05-10T08:42:44.222Z,976.03
2019-05-10T08:43:38.845Z,976.05
2019-05-10T08:44:34.827Z,976.00
2019-05-10T08:45:38.893Z,976.00
2019-05-10T08:46:40.923Z,976.13
2019-05-10T08:47:34.771Z,976.00
2019-05-10T08:48:38.217Z,976.08
2019-05-10T08:49:43.657Z,975.98
2019-05-10T08:50:49.777Z,976.01
2019-05-10T08:51:34.834Z,976.05
2019-05-10T08:52:34.644Z,976.06
2019-05-10T08:53:34.604Z,976.08
2019-05-10T08:54:34.575Z,976.16
2019-05-10T08:55:34.551Z,976.15
2019-05-10T08:56:34.526Z,976.09
2019-05-10T08:57:43.322Z,976.16
2019-05-10T08:58:37.089Z,976.21
2019-05-10T08:59:34.453Z,976.11
2019-05-10T09:00:45.142Z,976.16
2019-05-10T09:01:44.397Z,976.26
2019-05-10T09:02:34.409Z,976.13
2019-05-10T09:03:34.380Z,976.22
2019-05-10T09:04:45.412Z,976.18
2019-05-10T09:05:34.307Z,976.26
2019-05-10T09:06:34.264Z,976.28
2019-05-10T09:07:38.847Z,976.27
2019-05-10T09:08:34.842Z,976.28
2019-05-10T09:09:46.756Z,976.26
2019-05-10T09:10:34.167Z,976.27
2019-05-10T09:11:34.180Z,976.31
2019-05-10T09:12:34.113Z,976.33
2019-05-10T09:13:40.956Z,976.33
2019-05-10T09:14:34.071Z,976.33
2019-05-10T09:15:34.038Z,976.38
2019-05-10T09:16:39.360Z,976.34
2019-05-10T09:17:33.986Z,976.40
2019-05-10T09:18:38.107Z,976.30
2019-05-10T09:19:40.696Z,976.33
2019-05-10T09:20:33.899Z,976.35
2019-05-10T09:21:33.875Z,976.38
2019-05-10T09:22:38.396Z,976.34
2019-05-10T09:23:33.813Z,976.43
2019-05-10T09:24:34.932Z,976.37
2019-05-10T09:25:33.947Z,976.45
2019-05-10T09:26:33.747Z,976.47
2019-05-10T09:27:33.713Z,976.49
2019-05-10T09:28:33.716Z,976.54
2019-05-10T09:29:37.195Z,976.49
2019-05-10T09:30:35.496Z,976.50
2019-05-10T09:31:33.629Z,976.51
2019-05-10T09:32:33.611Z,976.50
2019-05-10T09:33:33.570Z,976.45
2019-05-10T09:34:33.532Z,976.55
2019-05-10T09:35:33.518Z,976.58
2019-05-10T09:36:36.080Z,976.56
2019-05-10T09:37:33.452Z,976.55
2019-05-10T09:38:37.693Z,976.56
2019-05-10T09:39:33.439Z,976.60
2019-05-10T09:40:33.385Z,976.62
2019-05-10T09:41:38.085Z,976.58
2019-05-10T09:47:33.081Z,976.62
2019-05-10T09:48:12.274Z,976.66
2019-05-10T09:50:05.118Z,976.64
2019-05-10T09:51:05.054Z,976.73
2019-05-10T09:52:12.821Z,976.69
2019-05-10T09:53:07.327Z,976.66
2019-05-10T09:54:07.408Z,976.66
2019-05-10T09:55:10.149Z,976.70
2019-05-10T09:56:04.913Z,976.69
2019-05-10T09:57:04.922Z,976.71
2019-05-10T09:58:04.868Z,976.76
2019-05-10T09:59:04.863Z,976.78
2019-05-10T10:00:07.238Z,976.63
2019-05-10T10:01:14.787Z,976.74
2019-05-10T10:02:05.011Z,976.78
2019-05-10T10:03:04.721Z,976.75
2019-05-10T10:04:04.693Z,976.76
2019-05-10T10:05:04.655Z,976.79
2019-05-10T10:06:07.683Z,976.83
2019-05-10T10:07:04.609Z,976.76
2019-05-10T10:08:09.321Z,976.78
2019-05-10T10:09:07.276Z,976.86
2019-05-10T10:10:07.143Z,976.93
2019-05-10T10:11:11.508Z,976.83
2019-05-10T10:12:06.806Z,976.76
2019-05-10T10:13:11.501Z,976.79
2019-05-10T10:14:04.467Z,976.83
2019-05-10T10:15:04.392Z,976.89
2019-05-10T10:16:12.624Z,976.92
2019-05-10T10:17:04.320Z,976.91
2019-05-10T10:18:04.299Z,976.93
2019-05-10T10:19:04.350Z,976.91
2019-05-10T10:20:04.235Z,976.92
2019-05-10T10:21:04.186Z,976.96
2019-05-10T10:22:05.573Z,976.91
2019-05-10T10:23:04.138Z,976.93
2019-05-10T10:24:12.220Z,976.89
2019-05-10T10:25:04.073Z,976.97
2019-05-10T10:26:04.057Z,976.99
2019-05-10T10:27:04.009Z,977.02
2019-05-10T10:28:10.408Z,976.95
2019-05-10T10:29:03.989Z,976.96
2019-05-10T10:30:06.685Z,977.02
2019-05-10T10:31:05.382Z,976.95
2019-05-10T10:32:03.871Z,976.99
2019-05-10T10:33:05.740Z,977.04
2019-05-10T10:34:03.901Z,976.98
2019-05-10T10:35:03.794Z,976.97
2019-05-10T10:36:05.502Z,977.02
2019-05-10T10:37:03.733Z,977.05
2019-05-10T10:38:05.632Z,977.13
2019-05-10T10:39:03.672Z,977.12
2019-05-10T10:40:05.396Z,977.18
2019-05-10T10:41:03.615Z,977.16
2019-05-10T10:42:08.807Z,977.07
2019-05-10T10:43:03.544Z,977.10
2019-05-10T10:44:03.519Z,977.09
2019-05-10T10:45:03.907Z,977.11
2019-05-10T10:46:03.470Z,977.14
2019-05-10T10:47:03.427Z,977.19
2019-05-10T10:48:08.565Z,977.19
2019-05-10T10:49:05.368Z,977.25
2019-05-10T10:50:09.176Z,977.28
2019-05-10T10:51:03.324Z,977.30
2019-05-10T10:52:05.696Z,977.31
2019-05-10T10:53:03.265Z,977.31
2019-05-10T10:54:03.217Z,977.34
2019-05-10T10:55:05.669Z,977.40
2019-05-10T10:56:03.990Z,977.40
2019-05-10T10:57:03.148Z,977.38
2019-05-10T10:58:03.136Z,977.43
2019-05-10T10:59:03.075Z,977.41
2019-05-10T11:00:03.082Z,977.38
2019-05-10T11:01:10.849Z,977.34
2019-05-10T11:02:30.198Z,977.39
2019-05-10T11:03:02.930Z,977.30
2019-05-10T11:04:07.410Z,977.30
2019-05-10T11:05:02.876Z,977.27
2019-05-10T11:06:02.836Z,977.21
2019-05-10T11:07:10.582Z,977.19
2019-05-10T11:08:02.787Z,977.22
2019-05-10T11:09:02.781Z,977.23
2019-05-10T11:10:14.655Z,977.23
2019-05-10T11:11:02.694Z,977.28
2019-05-10T11:12:02.653Z,977.17
2019-05-10T11:13:08.148Z,977.24
2019-05-10T11:14:07.366Z,977.24
2019-05-10T11:15:02.567Z,977.20
2019-05-10T11:16:09.919Z,977.23
2019-05-10T11:17:02.505Z,977.25
2019-05-10T11:18:02.473Z,977.32
2019-05-10T11:19:03.641Z,977.29
2019-05-10T11:20:02.424Z,977.27
2019-05-10T11:21:02.406Z,977.27
2019-05-10T11:22:09.662Z,977.18
2019-05-10T11:23:02.320Z,977.20
2019-05-10T11:24:02.379Z,977.21
2019-05-10T11:25:09.059Z,977.28
2019-05-10T11:26:02.245Z,977.28
2019-05-10T11:27:02.249Z,977.28
2019-05-10T11:28:02.186Z,977.44
2019-05-10T11:29:02.143Z,977.43
2019-05-10T11:30:02.165Z,977.35
2019-05-10T11:31:02.079Z,977.39
2019-05-10T11:32:15.455Z,977.36
2019-05-10T11:33:02.042Z,977.46
2019-05-10T11:34:01.994Z,977.37
2019-05-10T11:35:05.236Z,977.38
2019-05-10T11:36:03.963Z,977.43
2019-05-10T11:37:01.920Z,977.45
2019-05-10T11:38:06.549Z,977.41
2019-05-10T11:39:01.908Z,977.47
2019-05-10T11:40:01.946Z,977.43
2019-05-10T11:41:02.288Z,977.45
2019-05-10T11:42:07.007Z,977.44
2019-05-10T11:43:01.725Z,977.39
2019-05-10T11:44:05.434Z,977.40
2019-05-10T11:45:01.684Z,977.37
2019-05-10T11:46:01.623Z,977.40
2019-05-10T11:47:01.703Z,977.43
2019-05-10T11:48:02.262Z,977.38
2019-05-10T11:49:01.892Z,977.32
2019-05-10T11:50:06.365Z,977.50
2019-05-10T11:51:05.743Z,977.66
2019-05-10T11:53:01.401Z,977.47
2019-05-10T11:54:01.396Z,977.49
2019-05-10T11:55:01.472Z,977.35
2019-05-10T11:56:02.262Z,977.56
2019-05-10T11:57:06.601Z,977.54
2019-05-10T11:59:03.904Z,977.47
2019-05-10T11:59:04.985Z,977.53
2019-05-10T12:00:01.189Z,977.58
2019-05-10T12:01:12.808Z,977.75
2019-05-10T12:02:02.908Z,977.61
2019-05-10T12:03:07.928Z,977.62
2019-05-10T12:04:02.116Z,977.63
2019-05-10T12:05:11.002Z,977.70
2019-05-10T12:07:02.755Z,977.56
2019-05-10T12:08:02.124Z,977.61
2019-05-10T12:09:04.383Z,977.73
2019-05-10T12:10:07.694Z,977.62
2019-05-10T12:11:12.437Z,977.80
2019-05-10T12:12:03.267Z,977.71
2019-05-10T12:13:11.371Z,977.71
2019-05-10T12:15:04.278Z,977.74
2019-05-10T12:16:00.713Z,977.76
2019-05-10T12:17:05.599Z,977.77
2019-05-10T12:18:04.519Z,977.77
2019-05-10T12:20:02.478Z,977.81
2019-05-10T12:22:04.677Z,977.75
2019-05-10T12:23:03.412Z,977.86
2019-05-10T12:24:10.427Z,977.83
2019-05-10T12:25:27.439Z,977.91
2019-05-10T12:26:05.084Z,977.67
2019-05-10T12:26:06.530Z,977.66
2019-05-10T12:26:06.533Z,977.77
2019-05-10T12:26:12.074Z,977.83
2019-05-10T12:26:18.046Z,977.53
2019-05-10T12:27:12.723Z,977.85
2019-05-10T12:27:18.650Z,977.80
2019-05-10T12:28:01.265Z,977.81
2019-05-10T12:29:11.627Z,977.81
2019-05-10T12:30:03.251Z,977.82
2019-05-10T12:31:01.450Z,977.86
2019-05-10T12:32:00.267Z,977.83
2019-05-10T12:33:08.942Z,977.84
2019-05-10T12:34:08.722Z,977.82
2019-05-10T12:35:01.477Z,977.83
2019-05-10T12:36:00.088Z,977.84
2019-05-10T12:37:06.305Z,977.79
2019-05-10T12:38:01.682Z,977.87
2019-05-10T12:39:01.796Z,977.78